createdAt,value
2023-05-15T00:01:28.496Z,5.95
2023-05-15T00:03:57.099Z,6.53
2023-05-15T00:06:25.498Z,6.57
2023-05-15T00:08:54.152Z,5.82
2023-05-15T00:11:23.560Z,6.18
2023-05-15T00:13:52.287Z,5.82
2023-05-15T00:16:22.245Z,5.45
2023-05-15T00:18:51.076Z,5.93
2023-05-15T00:21:19.370Z,5.45
2023-05-15T00:23:48.511Z,5.45
2023-05-15T00:26:16.834Z,5.80
2023-05-15T00:28:45.702Z,5.20
2023-05-15T00:31:14.930Z,5.53
2023-05-15T00:33:44.860Z,5.00
2023-05-15T00:36:13.093Z,5.82
2023-05-15T00:38:41.666Z,4.60
2023-05-15T00:41:11.579Z,5.55
2023-05-15T00:43:41.176Z,5.28
2023-05-15T00:46:10.555Z,5.50
2023-05-15T00:48:39.860Z,5.22
2023-05-15T00:51:10.559Z,5.78
2023-05-15T00:53:39.586Z,5.68
2023-05-15T00:56:10.342Z,5.45
2023-05-15T00:58:39.671Z,6.07
2023-05-15T01:01:08.761Z,5.38
2023-05-15T01:03:38.489Z,5.78
2023-05-15T01:06:07.626Z,6.22
2023-05-15T01:08:41.272Z,5.38
2023-05-15T01:11:10.351Z,6.50
2023-05-15T01:13:38.934Z,5.38
2023-05-15T01:16:08.350Z,5.95
2023-05-15T01:18:37.807Z,6.13
2023-05-15T01:21:36.193Z,4.85
2023-05-15T01:24:21.595Z,6.45
2023-05-15T01:27:28.306Z,6.15
2023-05-15T01:30:03.501Z,6.00
2023-05-15T01:32:40.926Z,6.45
2023-05-15T01:35:14.590Z,6.35
2023-05-15T01:37:49.986Z,6.30
2023-05-15T01:40:20.011Z,6.60
2023-05-15T01:42:55.143Z,6.03
2023-05-15T01:45:26.137Z,5.95
2023-05-15T01:47:58.366Z,6.00
2023-05-15T01:50:31.770Z,5.50
2023-05-15T01:53:03.264Z,5.93
2023-05-15T01:55:32.278Z,5.90
2023-05-15T01:58:05.613Z,6.13
2023-05-15T02:00:35.168Z,6.75
2023-05-15T02:03:04.329Z,5.80
2023-05-15T02:05:33.628Z,5.60
2023-05-15T02:08:03.824Z,6.47
2023-05-15T02:10:33.956Z,5.85
2023-05-15T02:13:03.758Z,5.95
2023-05-15T02:15:32.825Z,6.55
2023-05-15T02:18:01.669Z,7.15
2023-05-15T02:20:30.304Z,5.38
2023-05-15T02:22:58.894Z,6.28
2023-05-15T02:25:35.788Z,6.20
2023-05-15T02:28:08.760Z,5.97
2023-05-15T02:30:44.315Z,5.97
2023-05-15T02:33:21.918Z,6.82
2023-05-15T02:35:53.872Z,6.50
2023-05-15T02:38:28.537Z,5.82
2023-05-15T02:40:59.151Z,7.35
2023-05-15T02:43:29.706Z,7.90
2023-05-15T02:45:58.795Z,7.07
2023-05-15T02:48:27.943Z,6.72
2023-05-15T02:50:56.604Z,6.53
2023-05-15T02:53:24.955Z,6.80
2023-05-15T02:55:53.597Z,7.28
2023-05-15T02:58:22.011Z,8.02
2023-05-15T03:00:51.959Z,6.60
2023-05-15T03:03:20.331Z,7.43
2023-05-15T03:05:48.828Z,6.85
2023-05-15T03:08:17.273Z,6.60
2023-05-15T03:10:47.384Z,7.30
2023-05-15T03:13:15.787Z,7.70
2023-05-15T03:15:45.276Z,7.00
2023-05-15T03:18:17.135Z,7.13
2023-05-15T03:20:49.274Z,7.38
2023-05-15T03:23:17.595Z,6.75
2023-05-15T03:25:46.305Z,7.18
2023-05-15T03:28:14.794Z,7.13
2023-05-15T03:30:45.161Z,7.53
2023-05-15T03:33:14.703Z,6.60
2023-05-15T03:35:44.674Z,8.10
2023-05-15T03:38:12.964Z,7.40
2023-05-15T03:40:41.906Z,8.00
2023-05-15T03:43:10.078Z,6.95
2023-05-15T03:45:40.152Z,8.13
2023-05-15T03:48:08.557Z,6.93
2023-05-15T03:50:39.258Z,5.95
2023-05-15T03:53:07.796Z,7.25
2023-05-15T03:55:37.092Z,6.97
2023-05-15T03:58:07.130Z,8.63
2023-05-15T04:00:36.107Z,6.82
2023-05-15T04:03:04.528Z,7.95
2023-05-15T04:05:33.461Z,7.28
2023-05-15T04:08:03.087Z,8.23
2023-05-15T04:10:32.437Z,7.35
2023-05-15T04:13:00.756Z,7.72
2023-05-15T04:15:29.512Z,8.40
2023-05-15T04:17:57.811Z,8.20
2023-05-15T04:20:27.045Z,8.30
2023-05-15T04:22:55.526Z,7.93
2023-05-15T04:25:26.349Z,8.55
2023-05-15T04:27:55.115Z,8.88
2023-05-15T04:30:24.120Z,12.20
2023-05-15T04:32:53.058Z,14.73
2023-05-15T04:35:21.973Z,15.07
2023-05-15T04:37:50.186Z,15.00
2023-05-15T04:40:20.088Z,13.48
2023-05-15T04:42:49.610Z,13.82
2023-05-15T04:45:18.766Z,16.90
2023-05-15T04:47:47.181Z,13.70
2023-05-15T04:50:15.684Z,12.73
2023-05-15T04:52:45.636Z,11.60
2023-05-15T04:55:14.298Z,11.30
2023-05-15T04:57:42.394Z,11.70
2023-05-15T05:00:14.482Z,11.32
2023-05-15T05:02:44.210Z,11.95
2023-05-15T05:05:14.648Z,11.93
2023-05-15T05:07:45.705Z,10.88
2023-05-15T05:10:14.435Z,11.63
2023-05-15T05:12:42.813Z,10.38
2023-05-15T05:15:13.340Z,9.55
2023-05-15T05:17:42.075Z,10.68
2023-05-15T05:20:13.172Z,10.43
2023-05-15T05:22:42.557Z,9.57
2023-05-15T05:25:11.917Z,10.05
2023-05-15T05:27:40.617Z,10.48
2023-05-15T05:30:10.292Z,10.57
2023-05-15T05:32:40.060Z,10.98
2023-05-15T05:35:09.312Z,10.82
2023-05-15T05:37:38.874Z,11.13
2023-05-15T05:40:10.886Z,10.45
2023-05-15T05:42:39.316Z,10.98
2023-05-15T05:45:09.773Z,10.55
2023-05-15T05:47:40.177Z,11.15
2023-05-15T05:50:09.948Z,10.73
2023-05-15T05:52:38.382Z,9.80
2023-05-15T05:55:07.644Z,9.50
2023-05-15T05:57:36.099Z,10.68
2023-05-15T06:00:06.998Z,11.60
2023-05-15T06:02:39.234Z,10.38
2023-05-15T06:05:08.901Z,10.90
2023-05-15T06:07:37.335Z,9.32
2023-05-15T06:10:07.557Z,10.13
2023-05-15T06:12:35.948Z,9.73
2023-05-15T06:15:05.048Z,9.93
2023-05-15T06:17:33.484Z,11.98
2023-05-15T06:20:05.050Z,11.30
2023-05-15T06:22:33.409Z,10.10
2023-05-15T06:25:02.882Z,10.98
2023-05-15T06:27:31.085Z,11.25
2023-05-15T06:29:59.975Z,11.73
2023-05-15T06:32:28.762Z,10.65
2023-05-15T06:34:57.460Z,11.38
2023-05-15T06:37:28.830Z,10.52
2023-05-15T06:39:57.444Z,10.50
2023-05-15T06:42:25.725Z,11.57
2023-05-15T06:44:54.369Z,10.88
2023-05-15T06:47:43.077Z,11.50
2023-05-15T06:50:11.940Z,11.63
2023-05-15T06:52:41.574Z,10.68
2023-05-15T06:55:25.756Z,13.95
2023-05-15T06:57:54.474Z,12.32
2023-05-15T07:00:23.152Z,13.30
2023-05-15T07:02:51.630Z,12.68
2023-05-15T07:05:19.982Z,13.15
2023-05-15T07:07:49.879Z,12.48
2023-05-15T07:10:18.227Z,11.00
2023-05-15T07:12:46.947Z,10.25
2023-05-15T07:15:17.591Z,9.10
2023-05-15T07:17:46.542Z,8.63
2023-05-15T07:20:14.900Z,7.80
2023-05-15T07:22:55.138Z,6.47
2023-05-15T07:25:26.089Z,6.78
2023-05-15T07:27:54.893Z,6.88
2023-05-15T07:30:23.702Z,6.30
2023-05-15T07:32:52.745Z,6.18
2023-05-15T07:35:20.919Z,6.35
2023-05-15T07:37:49.403Z,6.10
2023-05-15T07:40:17.711Z,6.78
2023-05-15T07:42:47.638Z,6.35
2023-05-15T07:45:15.948Z,8.63
2023-05-15T07:47:47.113Z,7.28
2023-05-15T07:50:15.804Z,8.80
2023-05-15T07:52:44.575Z,6.57
2023-05-15T07:55:13.839Z,7.07
2023-05-15T07:57:42.475Z,7.18
2023-05-15T08:00:13.611Z,8.77
2023-05-15T08:02:46.275Z,9.30
2023-05-15T08:05:14.597Z,7.68
2023-05-15T08:07:43.230Z,8.93
2023-05-15T08:10:12.079Z,8.60
2023-05-15T08:12:46.154Z,11.88
2023-05-15T08:15:16.173Z,11.07
2023-05-15T08:17:44.767Z,8.05
2023-05-15T08:20:14.168Z,8.00
2023-05-15T08:22:42.771Z,9.18
2023-05-15T08:25:11.581Z,8.18
2023-05-15T08:27:40.186Z,7.30
2023-05-15T08:30:09.731Z,7.70
2023-05-15T08:32:39.658Z,7.95
2023-05-15T08:35:09.272Z,8.45
2023-05-15T08:37:37.764Z,8.20
2023-05-15T08:40:08.050Z,7.78
2023-05-15T08:42:43.932Z,9.82
2023-05-15T08:45:13.814Z,10.73
2023-05-15T08:47:44.518Z,10.30
2023-05-15T08:50:15.155Z,11.00
2023-05-15T08:52:46.852Z,10.32
2023-05-15T08:55:15.720Z,9.82
2023-05-15T08:57:45.112Z,9.32
2023-05-15T09:00:14.915Z,10.13
2023-05-15T09:02:45.386Z,9.70
2023-05-15T09:05:13.766Z,13.10
2023-05-15T09:07:45.070Z,12.05
2023-05-15T09:10:14.892Z,9.00
2023-05-15T09:12:44.944Z,9.18
2023-05-15T09:15:15.999Z,9.63
2023-05-15T09:17:46.441Z,9.38
2023-05-15T09:20:27.781Z,8.88
2023-05-15T09:22:56.751Z,9.48
2023-05-15T09:25:39.307Z,18.13
2023-05-15T09:28:28.416Z,11.27
2023-05-15T09:31:02.149Z,9.88
2023-05-15T09:33:33.395Z,9.25
2023-05-15T09:36:02.763Z,9.77
2023-05-15T09:38:33.376Z,10.02
2023-05-15T09:41:06.172Z,9.07
2023-05-15T09:43:39.870Z,9.15
2023-05-15T09:46:12.234Z,9.60
2023-05-15T09:48:42.086Z,9.07
2023-05-15T09:51:16.670Z,8.68
2023-05-15T09:53:50.147Z,9.45
2023-05-15T09:56:19.228Z,10.15
2023-05-15T09:58:54.448Z,9.70
2023-05-15T10:01:23.772Z,10.00
2023-05-15T10:04:00.708Z,9.55
2023-05-15T10:06:35.508Z,9.88
2023-05-15T10:09:04.895Z,10.57
2023-05-15T10:11:36.522Z,8.90
2023-05-15T10:14:06.890Z,11.15
2023-05-15T10:16:36.878Z,10.32
2023-05-15T10:19:08.238Z,9.50
2023-05-15T10:21:39.369Z,9.77
2023-05-15T10:24:08.790Z,10.40
2023-05-15T10:26:39.173Z,10.15
2023-05-15T10:29:09.413Z,10.63
2023-05-15T10:31:38.507Z,8.98
2023-05-15T10:34:09.625Z,11.45
2023-05-15T10:36:39.870Z,10.30
2023-05-15T10:39:09.323Z,9.68
2023-05-15T10:41:39.979Z,10.75
2023-05-15T10:44:08.592Z,10.00
2023-05-15T10:46:37.861Z,10.38
2023-05-15T10:49:06.297Z,11.50
2023-05-15T10:51:40.291Z,11.10
2023-05-15T10:54:10.741Z,9.73
2023-05-15T10:56:40.041Z,9.40
2023-05-15T10:59:09.666Z,9.93
2023-05-15T11:01:39.466Z,10.02
2023-05-15T11:04:09.904Z,10.38
2023-05-15T11:06:40.956Z,9.27
2023-05-15T11:09:35.092Z,9.48
2023-05-15T11:12:04.811Z,9.65
2023-05-15T11:14:34.003Z,8.98
2023-05-15T11:17:05.097Z,9.85
2023-05-15T11:19:36.241Z,8.98
2023-05-15T11:22:19.766Z,10.02
2023-05-15T11:24:53.208Z,9.25
2023-05-15T11:27:23.788Z,9.48
2023-05-15T11:30:22.940Z,9.23
2023-05-15T11:32:55.792Z,8.85
2023-05-15T11:35:27.710Z,11.20
2023-05-15T11:37:59.208Z,9.30
2023-05-15T11:40:29.033Z,9.35
2023-05-15T11:43:08.824Z,10.07
2023-05-15T11:45:38.944Z,10.50
2023-05-15T11:48:15.497Z,10.20
2023-05-15T11:50:44.493Z,10.25
2023-05-15T11:53:15.538Z,10.30
2023-05-15T11:55:45.113Z,10.27
2023-05-15T11:58:15.719Z,9.95
2023-05-15T12:00:44.800Z,9.98
2023-05-15T12:03:16.176Z,9.88
2023-05-15T12:05:54.104Z,9.80
2023-05-15T12:08:31.980Z,10.38
2023-05-15T12:11:01.737Z,10.20
2023-05-15T12:13:31.541Z,9.98
2023-05-15T12:16:01.207Z,9.32
2023-05-15T12:18:30.875Z,10.00
2023-05-15T12:20:59.765Z,10.88
2023-05-15T12:23:29.749Z,10.45
2023-05-15T12:26:01.217Z,9.48
2023-05-15T12:28:31.068Z,9.35
2023-05-15T12:31:00.448Z,10.23
2023-05-15T12:33:29.119Z,9.80
2023-05-15T12:36:01.084Z,9.80
2023-05-15T12:38:33.875Z,9.38
2023-05-15T12:41:02.325Z,10.18
2023-05-15T12:43:32.474Z,10.40
2023-05-15T12:46:00.905Z,10.32
2023-05-15T12:48:33.555Z,9.68
2023-05-15T12:51:08.534Z,10.40
2023-05-15T12:53:39.834Z,11.27
2023-05-15T12:56:09.336Z,11.30
2023-05-15T12:58:39.715Z,14.50
2023-05-15T13:01:08.046Z,12.13
2023-05-15T13:03:37.304Z,11.85
2023-05-15T13:06:07.123Z,12.30
2023-05-15T13:08:42.450Z,12.20
2023-05-15T13:11:14.623Z,13.68
2023-05-15T13:13:45.048Z,11.35
2023-05-15T13:16:20.938Z,11.85
2023-05-15T13:18:49.795Z,10.35
2023-05-15T13:21:18.624Z,12.75
2023-05-15T13:23:48.754Z,11.27
2023-05-15T13:26:16.992Z,11.68
2023-05-15T13:28:45.853Z,12.43
2023-05-15T13:31:14.320Z,11.70
2023-05-15T13:33:42.935Z,12.18
2023-05-15T13:36:11.182Z,12.50
2023-05-15T13:38:39.743Z,12.77
2023-05-15T13:41:09.468Z,13.35
2023-05-15T13:43:37.960Z,13.45
2023-05-15T13:46:06.442Z,12.48
2023-05-15T13:48:35.027Z,12.52
2023-05-15T13:51:03.293Z,12.90
2023-05-15T13:53:31.804Z,12.50
2023-05-15T13:56:00.162Z,11.68
2023-05-15T13:58:30.259Z,11.00
2023-05-15T14:00:58.754Z,12.10
2023-05-15T14:03:27.642Z,12.45
2023-05-15T14:05:55.923Z,10.85
2023-05-15T14:08:24.471Z,11.40
2023-05-15T14:10:52.642Z,10.77
2023-05-15T14:13:21.697Z,10.88
2023-05-15T14:15:51.473Z,11.77
2023-05-15T14:18:19.971Z,10.57
2023-05-15T14:20:48.374Z,10.48
2023-05-15T14:23:17.017Z,10.75
2023-05-15T14:25:45.368Z,10.82
2023-05-15T14:28:14.205Z,11.07
2023-05-15T14:30:42.795Z,10.27
2023-05-15T14:33:12.745Z,10.77
2023-05-15T14:35:41.059Z,10.90
2023-05-15T14:38:09.557Z,10.52
2023-05-15T14:40:37.729Z,10.27
2023-05-15T14:43:06.621Z,11.18
2023-05-15T14:45:34.849Z,10.52
2023-05-15T14:48:03.443Z,11.70
2023-05-15T14:50:33.219Z,10.93
2023-05-15T14:53:01.655Z,10.65
2023-05-15T14:55:30.145Z,11.68
2023-05-15T14:57:59.428Z,10.82
2023-05-15T15:00:28.393Z,9.52
2023-05-15T15:02:57.831Z,11.40
2023-05-15T15:05:26.379Z,12.20
2023-05-15T15:08:02.520Z,9.93
2023-05-15T15:10:31.176Z,10.48
2023-05-15T15:13:00.197Z,10.52
2023-05-15T15:15:28.437Z,10.77
2023-05-15T15:17:58.266Z,10.68
2023-05-15T15:20:28.069Z,11.65
2023-05-15T15:22:57.148Z,10.60
2023-05-15T15:25:26.846Z,11.63
2023-05-15T15:27:55.717Z,12.05
2023-05-15T15:30:24.141Z,10.15
2023-05-15T15:32:54.662Z,10.05
2023-05-15T15:35:23.241Z,11.18
2023-05-15T15:37:53.134Z,10.63
2023-05-15T15:40:23.601Z,10.55
2023-05-15T15:42:54.285Z,10.45
2023-05-15T15:45:22.647Z,9.52
2023-05-15T15:47:51.470Z,8.25
2023-05-15T15:50:19.701Z,9.75
2023-05-15T15:52:48.256Z,9.52
2023-05-15T15:55:16.668Z,9.65
2023-05-15T15:57:46.114Z,10.50
2023-05-15T16:00:16.658Z,10.50
2023-05-15T16:02:45.399Z,10.90
2023-05-15T16:05:13.899Z,11.05
2023-05-15T16:07:42.282Z,10.73
2023-05-15T16:10:13.428Z,11.57
2023-05-15T16:12:43.830Z,11.23
2023-05-15T16:15:22.465Z,10.00
2023-05-15T16:17:54.880Z,12.00
2023-05-15T16:20:24.521Z,10.73
2023-05-15T16:22:53.549Z,12.30
2023-05-15T16:25:22.020Z,13.43
2023-05-15T16:27:50.854Z,13.02
2023-05-15T16:30:19.200Z,14.27
2023-05-15T16:32:48.556Z,15.55
2023-05-15T16:35:20.583Z,14.27
2023-05-15T16:37:49.023Z,14.90
2023-05-15T16:40:17.627Z,15.27
2023-05-15T16:42:46.439Z,15.98
2023-05-15T16:45:14.703Z,14.60
2023-05-15T16:47:43.351Z,12.60
2023-05-15T16:50:12.177Z,13.68
2023-05-15T16:52:45.850Z,13.93
2023-05-15T16:55:16.291Z,12.38
2023-05-15T16:57:45.316Z,14.30
2023-05-15T17:00:15.376Z,12.90
2023-05-15T17:02:44.578Z,12.50
2023-05-15T17:05:13.956Z,12.48
2023-05-15T17:07:45.353Z,11.40
2023-05-15T17:10:14.127Z,11.00
2023-05-15T17:12:42.618Z,11.43
2023-05-15T17:15:11.825Z,11.82
2023-05-15T17:17:40.801Z,11.27
2023-05-15T17:20:10.477Z,10.32
2023-05-15T17:22:39.388Z,10.20
2023-05-15T17:25:10.308Z,10.43
2023-05-15T17:27:41.202Z,12.10
2023-05-15T17:30:10.613Z,11.32
2023-05-15T17:32:40.086Z,10.85
2023-05-15T17:35:09.177Z,10.40
2023-05-15T17:37:48.720Z,9.85
2023-05-15T17:40:18.546Z,10.13
2023-05-15T17:42:47.140Z,9.98
2023-05-15T17:45:15.380Z,9.13
2023-05-15T17:47:43.915Z,10.40
2023-05-15T17:50:12.614Z,8.65
2023-05-15T17:52:41.187Z,9.07
2023-05-15T17:55:10.620Z,9.30
2023-05-15T17:57:40.621Z,8.07
2023-05-15T18:00:10.304Z,8.90
2023-05-15T18:02:41.613Z,8.43
2023-05-15T18:05:10.980Z,9.20
2023-05-15T18:07:39.838Z,6.85
2023-05-15T18:10:09.628Z,8.70
2023-05-15T18:12:38.328Z,7.22
2023-05-15T18:15:09.226Z,7.30
2023-05-15T18:17:37.805Z,6.32
2023-05-15T18:20:07.383Z,6.90
2023-05-15T18:22:36.359Z,6.85
2023-05-15T18:25:04.887Z,6.22
2023-05-15T18:27:33.995Z,6.20
2023-05-15T18:30:02.964Z,6.85
2023-05-15T18:32:33.175Z,6.78
2023-05-15T18:35:01.566Z,6.47
2023-05-15T18:37:30.314Z,7.57
2023-05-15T18:39:58.927Z,6.72
2023-05-15T18:42:29.594Z,6.50
2023-05-15T18:44:58.031Z,14.65
2023-05-15T18:47:26.933Z,14.82
2023-05-15T18:49:57.050Z,13.77
2023-05-15T18:52:26.980Z,11.73
2023-05-15T18:54:57.526Z,8.52
2023-05-15T18:57:26.401Z,10.73
2023-05-15T18:59:54.764Z,9.55
2023-05-15T19:02:25.890Z,7.80
2023-05-15T19:04:55.834Z,8.07
2023-05-15T19:07:24.575Z,7.80
2023-05-15T19:09:52.895Z,7.57
2023-05-15T19:12:21.478Z,8.45
2023-05-15T19:14:49.967Z,8.48
2023-05-15T19:17:20.163Z,7.95
2023-05-15T19:19:48.746Z,8.80
2023-05-15T19:22:19.122Z,8.75
2023-05-15T19:24:47.654Z,6.85
2023-05-15T19:27:16.337Z,8.48
2023-05-15T19:29:45.399Z,7.47
2023-05-15T19:32:13.893Z,9.13
2023-05-15T19:34:42.290Z,7.95
2023-05-15T19:37:11.277Z,7.47
2023-05-15T19:39:41.152Z,7.15
2023-05-15T19:42:09.863Z,6.70
2023-05-15T19:44:38.305Z,7.75
2023-05-15T19:47:08.856Z,7.43
2023-05-15T19:49:37.296Z,7.53
2023-05-15T19:52:06.508Z,6.82
2023-05-15T19:54:34.791Z,7.00
2023-05-15T19:57:05.177Z,6.97
2023-05-15T19:59:33.637Z,6.75
2023-05-15T20:02:03.341Z,8.35
2023-05-15T20:04:32.648Z,7.35
2023-05-15T20:07:01.351Z,8.23
2023-05-15T20:09:29.601Z,8.00
2023-05-15T20:11:58.292Z,7.65
2023-05-15T20:14:27.954Z,6.55
2023-05-15T20:16:56.908Z,5.68
2023-05-15T20:19:26.219Z,8.38
2023-05-15T20:21:54.810Z,8.52
2023-05-15T20:24:25.676Z,7.47
2023-05-15T20:26:54.449Z,8.18
2023-05-15T20:29:22.957Z,7.55
2023-05-15T20:31:53.066Z,7.10
2023-05-15T20:34:21.821Z,8.48
2023-05-15T20:36:52.605Z,6.90
2023-05-15T20:39:21.514Z,7.15
2023-05-15T20:41:50.188Z,7.55
2023-05-15T20:44:18.510Z,7.63
2023-05-15T20:46:47.218Z,6.28
2023-05-15T20:49:16.891Z,6.85
2023-05-15T20:51:45.306Z,6.43
2023-05-15T20:54:13.716Z,6.45
2023-05-15T20:56:42.396Z,6.38
2023-05-15T20:59:10.771Z,7.25
2023-05-15T21:01:39.572Z,6.55
2023-05-15T21:04:08.070Z,6.32
2023-05-15T21:06:38.454Z,6.50
2023-05-15T21:09:07.348Z,7.93
2023-05-15T21:11:35.943Z,7.40
2023-05-15T21:14:04.319Z,7.22
2023-05-15T21:16:32.749Z,6.70
2023-05-15T21:19:01.525Z,7.00
2023-05-15T21:21:30.261Z,7.85
2023-05-15T21:24:02.531Z,7.20
2023-05-15T21:26:49.392Z,7.47
2023-05-15T21:29:18.092Z,6.60
2023-05-15T21:31:46.531Z,6.35
2023-05-15T21:34:15.209Z,6.35
2023-05-15T21:36:43.525Z,5.95
2023-05-15T21:39:13.346Z,6.28
2023-05-15T21:41:41.585Z,7.18
2023-05-15T21:44:10.162Z,6.47
2023-05-15T21:46:38.498Z,7.05
2023-05-15T21:49:07.147Z,6.25
2023-05-15T21:51:36.126Z,6.63
2023-05-15T21:54:05.271Z,5.40
2023-05-15T21:56:35.999Z,6.13
2023-05-15T21:59:04.637Z,6.82
2023-05-15T22:01:32.877Z,5.88
2023-05-15T22:04:01.478Z,5.97
2023-05-15T22:06:29.791Z,7.93
2023-05-15T22:08:58.551Z,7.10
2023-05-15T22:11:26.811Z,6.70
2023-05-15T22:13:56.666Z,6.57
2023-05-15T22:16:24.903Z,6.95
2023-05-15T22:18:53.963Z,6.88
2023-05-15T22:21:22.422Z,8.30
2023-05-15T22:23:50.996Z,6.80
2023-05-15T22:26:23.744Z,7.80
2023-05-15T22:28:56.784Z,8.18
2023-05-15T22:31:25.263Z,8.05
2023-05-15T22:33:53.831Z,8.15
2023-05-15T22:36:40.587Z,8.00
2023-05-15T22:39:09.281Z,7.82
2023-05-15T22:41:37.548Z,8.63
2023-05-15T22:44:07.340Z,8.93
2023-05-15T22:46:35.602Z,7.88
2023-05-15T22:49:04.800Z,9.20
2023-05-15T22:51:33.656Z,8.85
2023-05-15T22:54:02.473Z,8.40
2023-05-15T22:56:30.972Z,9.10
2023-05-15T22:58:59.349Z,8.27
2023-05-15T23:01:29.953Z,10.07
2023-05-15T23:04:17.682Z,7.68
2023-05-15T23:06:46.275Z,7.13
2023-05-15T23:09:14.524Z,9.10
2023-05-15T23:11:43.020Z,7.97
2023-05-15T23:14:12.002Z,8.90
2023-05-15T23:16:42.242Z,9.00
2023-05-15T23:19:10.560Z,8.63
2023-05-15T23:21:39.654Z,8.00
2023-05-15T23:24:07.971Z,9.60
2023-05-15T23:26:36.688Z,8.77
2023-05-15T23:29:04.830Z,7.85
2023-05-15T23:31:33.888Z,7.72
2023-05-15T23:34:03.465Z,8.50
2023-05-15T23:36:31.944Z,8.02
2023-05-15T23:39:00.290Z,9.45
2023-05-15T23:41:28.737Z,8.35
2023-05-15T23:43:57.307Z,8.68
2023-05-15T23:46:26.233Z,8.30
2023-05-15T23:48:54.467Z,9.25
2023-05-15T23:51:24.326Z,8.63
2023-05-15T23:53:52.514Z,8.93
2023-05-15T23:56:21.012Z,9.57
2023-05-15T23:58:49.186Z,9.85
